createdAt,value
2022-12-24T00:00:08.779Z,1.67
2022-12-24T00:00:21.204Z,1.67
2022-12-24T00:00:34.152Z,1.58
2022-12-24T00:00:46.160Z,1.98
2022-12-24T00:00:58.264Z,1.98
2022-12-24T00:01:10.270Z,1.98
2022-12-24T00:01:22.438Z,1.63
2022-12-24T00:01:34.513Z,1.65
2022-12-24T00:01:46.451Z,1.50
2022-12-24T00:01:58.428Z,1.98
2022-12-24T00:02:10.536Z,2.22
2022-12-24T00:02:22.998Z,2.00
2022-12-24T00:02:35.112Z,1.98
2022-12-24T00:02:47.251Z,1.55
2022-12-24T00:02:59.509Z,1.40
2022-12-24T00:03:11.663Z,1.80
2022-12-24T00:03:24.258Z,1.92
2022-12-24T00:03:38.006Z,1.73
2022-12-24T00:03:50.437Z,2.00
2022-12-24T00:04:02.593Z,2.00
2022-12-24T00:04:14.530Z,2.00
2022-12-24T00:04:26.575Z,1.85
2022-12-24T00:04:38.560Z,1.85
2022-12-24T00:04:54.125Z,1.73
2022-12-24T00:05:09.411Z,1.60
2022-12-24T00:05:21.666Z,1.60
2022-12-24T00:05:33.677Z,1.75
2022-12-24T00:05:45.588Z,1.65
2022-12-24T00:05:57.565Z,1.75
2022-12-24T00:06:16.057Z,1.70
2022-12-24T00:06:28.023Z,1.65
2022-12-24T00:06:40.039Z,1.67
2022-12-24T00:06:51.945Z,1.55
2022-12-24T00:07:04.023Z,1.50
2022-12-24T00:07:16.027Z,1.83
2022-12-24T00:07:28.424Z,2.40
2022-12-24T00:07:40.398Z,2.17
2022-12-24T00:07:52.367Z,1.95
2022-12-24T00:08:04.614Z,1.58
2022-12-24T00:08:16.532Z,1.88
2022-12-24T00:08:28.426Z,1.90
2022-12-24T00:08:41.366Z,2.00
2022-12-24T00:08:53.402Z,1.95
2022-12-24T00:09:05.385Z,1.88
2022-12-24T00:09:17.314Z,1.58
2022-12-24T00:09:29.218Z,1.60
2022-12-24T00:09:41.124Z,1.60
2022-12-24T00:09:53.040Z,1.58
2022-12-24T00:10:06.158Z,1.63
2022-12-24T00:10:18.259Z,2.00
2022-12-24T00:10:30.164Z,2.15
2022-12-24T00:10:42.062Z,2.08
2022-12-24T00:10:54.334Z,1.90
2022-12-24T00:11:06.284Z,1.58
2022-12-24T00:11:19.124Z,1.85
2022-12-24T00:11:31.158Z,1.90
2022-12-24T00:11:43.077Z,2.05
2022-12-24T00:11:55.078Z,2.08
2022-12-24T00:12:07.304Z,2.17
2022-12-24T00:12:19.268Z,2.13
2022-12-24T00:12:31.615Z,1.92
2022-12-24T00:12:43.844Z,2.17
2022-12-24T00:12:55.766Z,2.10
2022-12-24T00:13:07.712Z,1.58
2022-12-24T00:13:20.778Z,1.45
2022-12-24T00:13:33.212Z,1.92
2022-12-24T00:13:45.228Z,2.42
2022-12-24T00:13:57.212Z,2.40
2022-12-24T00:14:09.170Z,2.65
2022-12-24T00:14:21.270Z,2.28
2022-12-24T00:14:33.222Z,1.80
2022-12-24T00:14:45.207Z,1.90
2022-12-24T00:14:57.160Z,2.00
2022-12-24T00:15:09.722Z,2.63
2022-12-24T00:15:22.365Z,2.47
2022-12-24T00:15:34.330Z,1.88
2022-12-24T00:15:46.822Z,1.52
2022-12-24T00:15:59.117Z,1.75
2022-12-24T00:16:11.348Z,2.00
2022-12-24T00:16:23.380Z,2.15
2022-12-24T00:16:35.456Z,2.30
2022-12-24T00:16:47.588Z,2.97
2022-12-24T00:16:59.676Z,3.05
2022-12-24T00:17:11.668Z,2.55
2022-12-24T00:17:23.993Z,2.33
2022-12-24T00:17:36.160Z,1.92
2022-12-24T00:17:48.108Z,1.55
2022-12-24T00:18:00.048Z,1.58
2022-12-24T00:18:11.985Z,1.88
2022-12-24T00:18:23.936Z,2.13
2022-12-24T00:18:41.536Z,2.60
2022-12-24T00:18:57.334Z,2.20
2022-12-24T00:19:09.300Z,1.92
2022-12-24T00:19:21.336Z,2.00
2022-12-24T00:19:33.241Z,2.00
2022-12-24T00:19:45.179Z,1.80
2022-12-24T00:19:57.091Z,1.80
2022-12-24T00:20:09.760Z,2.10
2022-12-24T00:20:21.708Z,2.10
2022-12-24T00:20:33.652Z,2.00
2022-12-24T00:20:48.272Z,2.00
2022-12-24T00:21:01.863Z,2.08
2022-12-24T00:21:15.190Z,2.28
2022-12-24T00:21:27.172Z,2.45
2022-12-24T00:21:39.368Z,2.00
2022-12-24T00:21:51.308Z,2.10
2022-12-24T00:22:03.206Z,1.90
2022-12-24T00:22:15.608Z,1.80
2022-12-24T00:22:27.676Z,1.98
2022-12-24T00:22:39.683Z,2.15
2022-12-24T00:22:51.615Z,2.05
2022-12-24T00:23:03.544Z,1.92
2022-12-24T00:23:17.276Z,2.45
2022-12-24T00:23:29.659Z,2.53
2022-12-24T00:23:41.798Z,2.53
2022-12-24T00:23:53.848Z,2.78
2022-12-24T00:24:06.106Z,2.35
2022-12-24T00:24:18.007Z,2.05
2022-12-24T00:24:30.053Z,1.90
2022-12-24T00:24:42.180Z,1.73
2022-12-24T00:24:54.170Z,1.75
2022-12-24T00:25:06.635Z,1.70
2022-12-24T00:25:18.641Z,1.90
2022-12-24T00:25:30.570Z,1.83
2022-12-24T00:25:42.602Z,1.70
2022-12-24T00:25:54.487Z,1.67
2022-12-24T00:26:06.401Z,1.80
2022-12-24T00:26:18.376Z,2.05
2022-12-24T00:26:30.292Z,1.90
2022-12-24T00:26:42.246Z,1.83
2022-12-24T00:26:54.231Z,2.05
2022-12-24T00:27:06.233Z,2.25
2022-12-24T00:27:18.328Z,2.03
2022-12-24T00:27:30.309Z,1.85
2022-12-24T00:27:42.218Z,1.67
2022-12-24T00:27:54.186Z,1.80
2022-12-24T00:28:06.220Z,2.15
2022-12-24T00:28:18.361Z,2.35
2022-12-24T00:28:30.341Z,2.13
2022-12-24T00:28:42.600Z,2.00
2022-12-24T00:28:54.517Z,1.80
2022-12-24T00:29:06.964Z,1.98
2022-12-24T00:29:18.851Z,2.00
2022-12-24T00:29:30.788Z,1.92
2022-12-24T00:29:42.761Z,1.80
2022-12-24T00:29:54.766Z,1.77
2022-12-24T00:30:07.331Z,1.58
2022-12-24T00:30:19.451Z,1.42
2022-12-24T00:30:31.454Z,1.58
2022-12-24T00:30:43.685Z,2.08
2022-12-24T00:30:55.694Z,2.83
2022-12-24T00:31:13.442Z,2.97
2022-12-24T00:31:26.049Z,2.92
2022-12-24T00:31:37.976Z,3.30
2022-12-24T00:31:49.906Z,2.90
2022-12-24T00:32:01.944Z,2.22
2022-12-24T00:32:13.877Z,1.83
2022-12-24T00:32:25.865Z,1.60
2022-12-24T00:32:38.741Z,1.60
2022-12-24T00:32:50.706Z,1.60
2022-12-24T00:33:02.671Z,1.50
2022-12-24T00:33:18.150Z,1.50
2022-12-24T00:33:32.821Z,1.80
2022-12-24T00:33:48.256Z,2.10
2022-12-24T00:34:00.242Z,2.15
2022-12-24T00:34:12.284Z,2.00
2022-12-24T00:34:24.971Z,2.08
2022-12-24T00:34:37.710Z,1.90
2022-12-24T00:34:49.662Z,1.75
2022-12-24T00:35:01.592Z,1.75
2022-12-24T00:35:13.652Z,2.03
2022-12-24T00:35:25.867Z,2.35
2022-12-24T00:35:39.617Z,2.15
2022-12-24T00:35:52.599Z,2.20
2022-12-24T00:36:05.536Z,1.88
2022-12-24T00:36:18.695Z,1.75
2022-12-24T00:36:30.602Z,1.75
2022-12-24T00:36:42.582Z,2.00
2022-12-24T00:36:54.559Z,1.80
2022-12-24T00:37:07.094Z,1.60
2022-12-24T00:37:19.100Z,1.40
2022-12-24T00:37:31.001Z,1.67
2022-12-24T00:37:42.950Z,1.90
2022-12-24T00:37:54.868Z,1.90
2022-12-24T00:38:07.647Z,1.70
2022-12-24T00:38:19.642Z,1.60
2022-12-24T00:38:31.654Z,1.40
2022-12-24T00:38:44.485Z,1.40
2022-12-24T00:38:56.425Z,1.30
2022-12-24T00:39:08.369Z,1.50
2022-12-24T00:39:20.300Z,1.73
2022-12-24T00:39:32.308Z,1.98
2022-12-24T00:39:44.199Z,1.77
2022-12-24T00:39:56.128Z,1.50
2022-12-24T00:40:08.711Z,1.48
2022-12-24T00:40:20.671Z,1.52
2022-12-24T00:40:33.244Z,1.58
2022-12-24T00:40:45.162Z,1.50
2022-12-24T00:41:02.031Z,1.58
2022-12-24T00:41:30.207Z,1.92
2022-12-24T00:41:42.156Z,1.52
2022-12-24T00:41:54.056Z,1.58
2022-12-24T00:42:06.045Z,1.92
2022-12-24T00:42:17.947Z,2.17
2022-12-24T00:42:29.877Z,2.05
2022-12-24T00:42:41.834Z,1.90
2022-12-24T00:42:53.769Z,1.73
2022-12-24T00:43:05.660Z,2.08
2022-12-24T00:43:17.643Z,1.90
2022-12-24T00:43:30.203Z,1.77
2022-12-24T00:43:42.089Z,1.40
2022-12-24T00:44:02.389Z,1.75
2022-12-24T00:44:14.328Z,2.00
2022-12-24T00:44:26.302Z,1.70
2022-12-24T00:44:38.228Z,1.55
2022-12-24T00:44:50.170Z,1.45
2022-12-24T00:45:02.116Z,1.42
2022-12-24T00:45:14.083Z,1.65
2022-12-24T00:45:27.872Z,1.75
2022-12-24T00:45:39.867Z,1.80
2022-12-24T00:45:51.891Z,1.90
2022-12-24T00:46:04.020Z,2.10
2022-12-24T00:46:16.083Z,2.30
2022-12-24T00:46:30.327Z,2.45
2022-12-24T00:46:42.479Z,1.85
2022-12-24T00:46:54.512Z,1.55
2022-12-24T00:47:11.791Z,1.48
2022-12-24T00:47:24.212Z,1.50
2022-12-24T00:47:36.421Z,1.42
2022-12-24T00:47:48.506Z,1.38
2022-12-24T00:48:00.412Z,1.17
2022-12-24T00:48:12.396Z,1.02
2022-12-24T00:48:24.526Z,1.30
2022-12-24T00:48:36.425Z,1.45
2022-12-24T00:48:48.643Z,1.48
2022-12-24T00:49:01.890Z,1.40
2022-12-24T00:49:14.234Z,1.30
2022-12-24T00:49:26.215Z,1.45
2022-12-24T00:49:38.165Z,1.70
2022-12-24T00:49:50.068Z,1.80
2022-12-24T00:50:02.366Z,1.67
2022-12-24T00:50:14.744Z,1.48
2022-12-24T00:50:26.755Z,1.38
2022-12-24T00:50:38.816Z,1.60
2022-12-24T00:50:51.304Z,1.58
2022-12-24T00:51:03.498Z,1.45
2022-12-24T00:51:16.427Z,1.40
2022-12-24T00:51:28.720Z,1.50
2022-12-24T00:51:40.829Z,1.65
2022-12-24T00:51:52.778Z,1.55
2022-12-24T00:52:04.876Z,1.67
2022-12-24T00:52:16.786Z,1.67
2022-12-24T00:52:28.787Z,1.70
2022-12-24T00:52:41.455Z,1.70
2022-12-24T00:52:53.420Z,1.70
2022-12-24T00:53:05.523Z,1.90
2022-12-24T00:53:18.311Z,1.67
2022-12-24T00:53:30.282Z,1.70
2022-12-24T00:53:42.310Z,1.88
2022-12-24T00:53:54.380Z,1.75
2022-12-24T00:54:07.247Z,1.67
2022-12-24T00:54:19.241Z,1.30
2022-12-24T00:54:31.352Z,1.50
2022-12-24T00:54:43.363Z,1.60
2022-12-24T00:54:55.332Z,1.75
2022-12-24T00:55:08.227Z,1.50
2022-12-24T00:55:20.186Z,1.65
2022-12-24T00:55:32.132Z,1.80
2022-12-24T00:55:44.108Z,1.63
2022-12-24T00:55:56.041Z,1.50
2022-12-24T00:56:08.397Z,1.63
2022-12-24T00:56:21.060Z,1.77
2022-12-24T00:56:33.524Z,1.70
2022-12-24T00:56:45.444Z,1.80
2022-12-24T00:56:57.433Z,1.55
2022-12-24T00:57:09.391Z,1.67
2022-12-24T00:57:21.360Z,1.73
2022-12-24T00:57:33.279Z,1.92
2022-12-24T00:57:45.200Z,1.95
2022-12-24T00:57:57.187Z,2.10
2022-12-24T00:58:10.347Z,1.85
2022-12-24T00:58:22.251Z,1.67
2022-12-24T00:58:34.507Z,1.65
2022-12-24T00:58:46.473Z,1.55
2022-12-24T00:58:58.659Z,1.48
2022-12-24T00:59:10.595Z,1.40
2022-12-24T00:59:22.580Z,1.48
2022-12-24T00:59:34.509Z,1.70
2022-12-24T00:59:46.549Z,1.70
2022-12-24T00:59:58.544Z,1.50
2022-12-24T01:00:11.145Z,1.52
2022-12-24T01:00:23.212Z,1.60
2022-12-24T01:00:35.179Z,1.67
2022-12-24T01:00:47.091Z,1.48
2022-12-24T01:00:59.034Z,1.50
2022-12-24T01:01:11.386Z,1.58
2022-12-24T01:01:24.439Z,1.67
2022-12-24T01:01:36.850Z,1.60
2022-12-24T01:01:48.984Z,1.50
2022-12-24T01:02:01.106Z,1.58
2022-12-24T01:02:13.266Z,1.60
2022-12-24T01:02:25.671Z,1.48
2022-12-24T01:02:37.876Z,1.33
2022-12-24T01:02:50.344Z,1.30
2022-12-24T01:03:02.569Z,1.30
2022-12-24T01:03:14.581Z,1.30
2022-12-24T01:03:36.198Z,1.42
2022-12-24T01:03:48.433Z,1.60
2022-12-24T01:04:18.880Z,1.40
2022-12-24T01:04:49.256Z,1.55
2022-12-24T01:05:10.295Z,1.30
2022-12-24T01:05:23.064Z,1.58
2022-12-24T01:05:35.039Z,1.60
2022-12-24T01:05:48.378Z,1.60
2022-12-24T01:06:00.325Z,1.42
2022-12-24T01:06:15.411Z,1.40
2022-12-24T01:06:27.364Z,1.73
2022-12-24T01:06:39.325Z,1.90
2022-12-24T01:06:51.276Z,1.90
2022-12-24T01:07:03.215Z,1.70
2022-12-24T01:07:15.204Z,1.60
2022-12-24T01:07:27.080Z,1.27
2022-12-24T01:07:43.785Z,1.10
2022-12-24T01:07:55.829Z,1.30
2022-12-24T01:08:07.783Z,1.48
2022-12-24T01:08:19.724Z,1.40
2022-12-24T01:08:32.104Z,1.50
2022-12-24T01:08:44.290Z,1.48
2022-12-24T01:08:56.209Z,1.48
2022-12-24T01:09:08.192Z,1.48
2022-12-24T01:09:20.163Z,1.50
2022-12-24T01:09:32.116Z,1.40
2022-12-24T01:09:44.028Z,1.35
2022-12-24T01:09:55.942Z,1.45
2022-12-24T01:10:09.792Z,1.40
2022-12-24T01:10:21.827Z,1.35
2022-12-24T01:10:33.734Z,1.20
2022-12-24T01:10:45.656Z,1.10
2022-12-24T01:10:58.190Z,1.30
2022-12-24T01:11:12.250Z,1.52
2022-12-24T01:11:24.198Z,1.63
2022-12-24T01:11:36.175Z,1.55
2022-12-24T01:11:48.139Z,1.50
2022-12-24T01:12:00.065Z,1.63
2022-12-24T01:12:12.019Z,1.77
2022-12-24T01:12:24.007Z,1.67
2022-12-24T01:12:36.434Z,1.73
2022-12-24T01:12:48.463Z,1.70
2022-12-24T01:13:03.906Z,1.63
2022-12-24T01:13:15.840Z,1.58
2022-12-24T01:13:28.087Z,1.50
2022-12-24T01:13:40.045Z,1.60
2022-12-24T01:13:51.972Z,1.55
2022-12-24T01:14:03.996Z,1.50
2022-12-24T01:14:15.956Z,1.67
2022-12-24T01:14:27.983Z,1.50
2022-12-24T01:14:39.994Z,1.40
2022-12-24T01:14:52.020Z,1.48
2022-12-24T01:15:04.828Z,1.60
2022-12-24T01:15:16.844Z,1.60
2022-12-24T01:15:29.328Z,1.60
2022-12-24T01:15:41.437Z,1.70
2022-12-24T01:15:53.617Z,1.60
2022-12-24T01:16:18.344Z,1.38
2022-12-24T01:16:30.479Z,1.65
2022-12-24T01:16:42.481Z,1.52
2022-12-24T01:16:54.450Z,1.58
2022-12-24T01:17:06.353Z,1.42
2022-12-24T01:17:18.317Z,1.45
2022-12-24T01:17:32.348Z,1.60
2022-12-24T01:17:44.300Z,1.60
2022-12-24T01:17:56.384Z,1.52
2022-12-24T01:18:08.299Z,1.70
2022-12-24T01:18:20.678Z,1.88
2022-12-24T01:18:32.636Z,1.80
2022-12-24T01:18:44.592Z,1.60
2022-12-24T01:18:56.647Z,1.58
2022-12-24T01:19:09.227Z,1.80
2022-12-24T01:19:21.412Z,1.73
2022-12-24T01:19:34.089Z,1.67
2022-12-24T01:19:46.043Z,1.60
2022-12-24T01:19:57.993Z,1.40
2022-12-24T01:20:14.720Z,1.42
2022-12-24T01:20:31.418Z,1.55
2022-12-24T01:20:43.902Z,1.58
2022-12-24T01:21:01.323Z,1.60
2022-12-24T01:21:13.578Z,1.63
2022-12-24T01:21:25.485Z,2.00
2022-12-24T01:21:37.509Z,2.03
2022-12-24T01:21:49.462Z,1.95
2022-12-24T01:22:01.428Z,1.98
2022-12-24T01:22:13.383Z,2.03
2022-12-24T01:22:25.472Z,1.77
2022-12-24T01:22:37.437Z,1.73
2022-12-24T01:22:49.479Z,1.80
2022-12-24T01:23:01.442Z,2.05
2022-12-24T01:23:13.372Z,1.88
2022-12-24T01:23:26.346Z,1.92
2022-12-24T01:23:38.286Z,1.63
2022-12-24T01:23:50.222Z,1.58
2022-12-24T01:24:02.167Z,1.50
2022-12-24T01:24:15.906Z,1.50
2022-12-24T01:24:28.299Z,1.50
2022-12-24T01:24:41.540Z,1.48
2022-12-24T01:24:53.554Z,1.73
2022-12-24T01:25:06.173Z,1.83
2022-12-24T01:25:18.260Z,2.05
2022-12-24T01:25:30.162Z,2.00
2022-12-24T01:25:42.065Z,2.00
2022-12-24T01:25:54.051Z,1.90
2022-12-24T01:26:06.061Z,1.70
2022-12-24T01:26:18.076Z,1.58
2022-12-24T01:26:30.027Z,1.40
2022-12-24T01:26:42.963Z,1.30
2022-12-24T01:26:54.867Z,1.50
2022-12-24T01:27:06.888Z,1.58
2022-12-24T01:27:18.886Z,1.50
2022-12-24T01:27:30.912Z,1.38
2022-12-24T01:27:42.924Z,1.23
2022-12-24T01:27:54.902Z,1.25
2022-12-24T01:28:06.873Z,1.52
2022-12-24T01:28:20.185Z,1.70
2022-12-24T01:28:33.418Z,1.60
2022-12-24T01:28:45.379Z,1.60
2022-12-24T01:28:57.525Z,1.63
2022-12-24T01:29:09.438Z,1.70
2022-12-24T01:29:21.489Z,1.58
2022-12-24T01:29:33.449Z,1.50
2022-12-24T01:29:45.436Z,1.48
2022-12-24T01:29:57.375Z,1.50
2022-12-24T01:30:14.717Z,1.48
2022-12-24T01:30:26.635Z,1.52
2022-12-24T01:30:41.237Z,1.52
2022-12-24T01:30:53.237Z,1.67
2022-12-24T01:31:13.500Z,1.98
2022-12-24T01:31:25.681Z,1.95
2022-12-24T01:31:37.832Z,1.60
2022-12-24T01:31:49.908Z,1.50
2022-12-24T01:32:01.951Z,1.50
2022-12-24T01:32:13.884Z,1.85
2022-12-24T01:32:25.821Z,2.00
2022-12-24T01:32:37.781Z,1.90
2022-12-24T01:32:49.744Z,1.80
2022-12-24T01:33:01.703Z,1.65
2022-12-24T01:33:14.088Z,1.30
2022-12-24T01:33:29.461Z,1.67
2022-12-24T01:33:42.207Z,1.90
2022-12-24T01:33:54.151Z,2.10
2022-12-24T01:34:06.170Z,2.08
2022-12-24T01:34:18.200Z,2.05
2022-12-24T01:34:30.215Z,1.50
2022-12-24T01:34:42.387Z,1.58
2022-12-24T01:34:54.319Z,1.50
2022-12-24T01:35:06.678Z,1.48
2022-12-24T01:35:18.603Z,1.23
2022-12-24T01:35:30.526Z,1.30
2022-12-24T01:35:43.188Z,1.60
2022-12-24T01:35:55.176Z,1.75
2022-12-24T01:36:07.425Z,2.00
2022-12-24T01:36:19.406Z,2.00
2022-12-24T01:36:31.409Z,1.73
2022-12-24T01:36:43.309Z,1.58
2022-12-24T01:36:55.252Z,1.70
2022-12-24T01:37:07.156Z,1.90
2022-12-24T01:37:19.136Z,1.65
2022-12-24T01:37:31.178Z,1.70
2022-12-24T01:37:43.376Z,1.67
2022-12-24T01:37:55.316Z,1.40
2022-12-24T01:38:07.507Z,1.70
2022-12-24T01:38:19.469Z,1.63
2022-12-24T01:38:31.685Z,1.67
2022-12-24T01:38:43.656Z,1.50
2022-12-24T01:38:55.722Z,1.60
2022-12-24T01:39:07.692Z,1.48
2022-12-24T01:39:19.635Z,1.48
2022-12-24T01:39:31.701Z,1.40
2022-12-24T01:39:43.644Z,1.45
2022-12-24T01:40:18.212Z,1.40
2022-12-24T01:40:49.063Z,1.35
2022-12-24T01:41:19.437Z,1.33
2022-12-24T01:41:51.100Z,1.55
2022-12-24T01:42:29.610Z,1.58
2022-12-24T01:43:07.534Z,1.40
2022-12-24T01:43:24.763Z,1.50
2022-12-24T01:43:36.753Z,1.50
2022-12-24T01:43:48.769Z,1.40
2022-12-24T01:44:17.220Z,1.25
2022-12-24T01:44:35.804Z,1.60
2022-12-24T01:44:52.466Z,1.60
2022-12-24T01:45:50.636Z,1.70
2022-12-24T01:46:12.642Z,1.65
2022-12-24T01:46:32.213Z,1.48
2022-12-24T01:46:45.081Z,1.70
2022-12-24T01:47:14.102Z,1.60
2022-12-24T01:47:29.458Z,1.70
2022-12-24T01:47:41.379Z,1.83
2022-12-24T01:47:53.281Z,1.90
2022-12-24T01:48:09.424Z,1.60
2022-12-24T01:48:58.863Z,1.42
2022-12-24T01:49:14.484Z,1.23
2022-12-24T01:49:26.640Z,1.42
2022-12-24T01:49:42.784Z,1.77
2022-12-24T01:50:01.689Z,1.92
2022-12-24T01:50:17.715Z,1.77
2022-12-24T01:50:29.799Z,1.80
2022-12-24T01:50:42.372Z,1.65
2022-12-24T01:51:18.232Z,1.45
2022-12-24T01:51:51.896Z,1.52
2022-12-24T01:52:09.086Z,1.70
2022-12-24T01:52:24.746Z,1.50
2022-12-24T01:52:37.055Z,1.48
2022-12-24T01:52:49.684Z,1.65
2022-12-24T01:53:03.807Z,1.60
2022-12-24T01:53:16.064Z,1.63
2022-12-24T01:53:29.064Z,1.60
2022-12-24T01:53:43.712Z,1.58
2022-12-24T01:54:03.379Z,1.70
2022-12-24T01:54:23.270Z,2.03
2022-12-24T01:54:41.479Z,1.85
2022-12-24T01:54:58.567Z,2.03
2022-12-24T01:55:18.695Z,2.20
2022-12-24T01:55:30.648Z,1.65
2022-12-24T01:55:44.647Z,1.55
2022-12-24T01:55:57.278Z,1.73
2022-12-24T01:56:11.595Z,1.90
2022-12-24T01:56:24.751Z,1.73
2022-12-24T01:56:41.421Z,1.95
2022-12-24T01:57:02.660Z,2.22
2022-12-24T01:57:30.453Z,2.13
2022-12-24T01:57:51.116Z,2.22
2022-12-24T01:58:05.124Z,2.35
2022-12-24T01:58:18.032Z,2.00
2022-12-24T01:58:30.301Z,1.80
2022-12-24T01:58:46.553Z,1.67
2022-12-24T01:59:06.041Z,1.58
2022-12-24T01:59:21.007Z,1.60
2022-12-24T01:59:33.776Z,1.50
2022-12-24T01:59:49.583Z,1.40
2022-12-24T02:00:06.207Z,1.52
2022-12-24T02:00:19.338Z,1.70
2022-12-24T02:00:33.839Z,1.65
2022-12-24T02:00:45.972Z,1.73
2022-12-24T02:00:58.219Z,2.22
2022-12-24T02:01:10.212Z,2.47
2022-12-24T02:01:22.891Z,2.47
2022-12-24T02:01:35.179Z,2.25
2022-12-24T02:01:49.838Z,2.45
2022-12-24T02:02:02.439Z,2.83
2022-12-24T02:02:15.699Z,3.95
2022-12-24T02:02:28.817Z,3.58
2022-12-24T02:02:43.701Z,2.83
2022-12-24T02:02:56.026Z,2.70
2022-12-24T02:03:08.757Z,2.28
2022-12-24T02:03:21.471Z,1.80
2022-12-24T02:03:33.671Z,2.05
2022-12-24T02:03:45.748Z,1.80
2022-12-24T02:03:58.126Z,1.55
2022-12-24T02:04:44.132Z,1.40
2022-12-24T02:05:10.908Z,1.75
2022-12-24T02:05:28.912Z,1.70
2022-12-24T02:05:50.577Z,1.92
2022-12-24T02:06:02.936Z,1.73
2022-12-24T02:06:16.876Z,1.60
2022-12-24T02:06:28.833Z,1.35
2022-12-24T02:06:40.806Z,1.38
2022-12-24T02:06:52.797Z,1.50
2022-12-24T02:07:05.085Z,1.92
2022-12-24T02:07:17.076Z,1.80
2022-12-24T02:07:29.389Z,1.40
2022-12-24T02:07:42.049Z,1.38
2022-12-24T02:07:54.177Z,1.52
2022-12-24T02:08:07.607Z,1.50
2022-12-24T02:08:20.844Z,1.40
2022-12-24T02:08:42.774Z,1.58
2022-12-24T02:08:55.801Z,1.70
2022-12-24T02:09:07.769Z,1.80
2022-12-24T02:09:20.263Z,1.85
2022-12-24T02:09:35.668Z,1.70
2022-12-24T02:09:51.144Z,1.70
2022-12-24T02:10:05.921Z,1.40
2022-12-24T02:10:17.967Z,1.58
2022-12-24T02:10:30.145Z,1.75
2022-12-24T02:10:42.105Z,1.75
2022-12-24T02:10:54.008Z,1.63
2022-12-24T02:11:13.068Z,1.45
2022-12-24T02:11:25.236Z,1.30
2022-12-24T02:11:42.427Z,1.35
2022-12-24T02:11:54.593Z,1.38
2022-12-24T02:12:07.567Z,1.33
2022-12-24T02:12:19.585Z,1.30
2022-12-24T02:12:36.035Z,1.23
2022-12-24T02:12:49.208Z,1.40
2022-12-24T02:13:02.298Z,1.60
2022-12-24T02:13:17.335Z,1.52
2022-12-24T02:13:29.282Z,1.70
2022-12-24T02:13:44.078Z,1.70
2022-12-24T02:14:00.126Z,1.80
2022-12-24T02:14:13.725Z,1.92
2022-12-24T02:14:28.032Z,1.70
2022-12-24T02:14:39.964Z,1.58
2022-12-24T02:14:52.802Z,1.50
2022-12-24T02:15:10.823Z,1.60
2022-12-24T02:15:23.142Z,1.63
2022-12-24T02:15:53.570Z,1.70
2022-12-24T02:16:22.273Z,2.13
2022-12-24T02:16:54.540Z,1.50
2022-12-24T02:17:31.721Z,1.97
2022-12-24T02:18:05.575Z,1.63
2022-12-24T02:18:29.769Z,1.58
2022-12-24T02:18:59.066Z,1.70
2022-12-24T02:19:23.625Z,1.80
2022-12-24T02:19:53.772Z,1.75
2022-12-24T02:20:27.055Z,2.00
2022-12-24T02:21:12.459Z,2.33
2022-12-24T02:21:39.560Z,2.38
2022-12-24T02:21:58.091Z,2.33
2022-12-24T02:22:47.544Z,2.50
2022-12-24T02:23:29.982Z,2.05
2022-12-24T02:24:00.827Z,2.13
2022-12-24T02:24:33.889Z,2.20
2022-12-24T02:25:04.120Z,2.30
2022-12-24T02:25:39.952Z,2.05
2022-12-24T02:26:20.890Z,1.92
2022-12-24T02:26:35.462Z,1.98
2022-12-24T02:27:02.122Z,2.13
2022-12-24T02:27:24.905Z,1.67
2022-12-24T02:27:55.299Z,1.40
2022-12-24T02:28:27.466Z,1.50
2022-12-24T02:29:03.349Z,1.80
2022-12-24T02:29:37.811Z,1.50
2022-12-24T02:30:12.434Z,1.40
2022-12-24T02:30:34.631Z,1.80
2022-12-24T02:30:58.115Z,1.70
2022-12-24T02:31:35.743Z,1.80
2022-12-24T02:31:57.652Z,1.50
2022-12-24T02:32:15.030Z,1.75
2022-12-24T02:32:36.461Z,1.90
2022-12-24T02:33:02.293Z,1.63
2022-12-24T02:33:30.345Z,1.77
2022-12-24T02:34:11.637Z,1.77
2022-12-24T02:34:36.777Z,1.48
2022-12-24T02:34:58.621Z,1.50
2022-12-24T02:35:46.786Z,1.60
2022-12-24T02:36:25.479Z,1.55
2022-12-24T02:36:46.824Z,1.30
2022-12-24T02:37:08.873Z,1.88
2022-12-24T02:37:29.375Z,2.45
2022-12-24T02:37:49.032Z,1.85
2022-12-24T02:38:22.136Z,1.85
2022-12-24T02:38:39.748Z,1.63
2022-12-24T02:39:05.288Z,1.42
2022-12-24T02:39:26.218Z,1.58
2022-12-24T02:39:48.851Z,1.63
2022-12-24T02:40:15.764Z,1.45
2022-12-24T02:40:50.239Z,1.30
2022-12-24T02:41:07.196Z,1.20
2022-12-24T02:41:25.799Z,1.25
2022-12-24T02:42:06.892Z,1.45
2022-12-24T02:42:23.795Z,1.08
2022-12-24T02:42:40.290Z,1.38
2022-12-24T02:42:58.390Z,1.60
2022-12-24T02:43:15.705Z,1.70
2022-12-24T02:43:34.106Z,1.30
2022-12-24T02:43:48.709Z,1.55
2022-12-24T02:44:00.797Z,1.85
2022-12-24T02:44:13.061Z,1.83
2022-12-24T02:44:27.900Z,1.42
2022-12-24T02:45:03.919Z,1.30
2022-12-24T02:45:29.109Z,1.10
2022-12-24T02:45:45.397Z,1.38
2022-12-24T02:46:01.043Z,1.20
2022-12-24T02:46:21.883Z,1.38
2022-12-24T02:46:33.956Z,1.40
2022-12-24T02:46:47.536Z,1.30
2022-12-24T02:47:01.110Z,1.33
2022-12-24T02:47:15.193Z,1.13
2022-12-24T02:47:31.009Z,1.13
2022-12-24T02:47:46.748Z,1.40
2022-12-24T02:47:59.821Z,1.38
2022-12-24T02:48:15.179Z,1.50
2022-12-24T02:48:29.446Z,1.55
2022-12-24T02:48:44.559Z,1.40
2022-12-24T02:48:59.148Z,1.20
2022-12-24T02:49:12.076Z,1.25
2022-12-24T02:49:24.122Z,1.20
2022-12-24T02:49:37.348Z,1.45
2022-12-24T02:49:49.513Z,1.85
2022-12-24T02:50:03.200Z,2.03
2022-12-24T02:50:17.164Z,2.10
2022-12-24T02:50:29.444Z,2.10
2022-12-24T02:50:54.966Z,1.77
2022-12-24T02:51:10.149Z,1.40
2022-12-24T02:51:24.699Z,1.30
2022-12-24T02:51:36.728Z,1.50
2022-12-24T02:51:48.892Z,1.70
2022-12-24T02:52:01.047Z,1.50
2022-12-24T02:52:32.918Z,1.30
2022-12-24T02:52:46.854Z,1.40
2022-12-24T02:52:59.002Z,1.55
2022-12-24T02:53:11.078Z,1.45
2022-12-24T02:53:23.146Z,1.25
2022-12-24T02:53:36.858Z,1.10
2022-12-24T02:53:48.946Z,1.20
2022-12-24T02:54:01.102Z,1.20
2022-12-24T02:54:14.658Z,1.20
2022-12-24T02:54:27.495Z,1.30
2022-12-24T02:54:39.638Z,1.40
2022-12-24T02:54:51.704Z,1.40
2022-12-24T02:55:14.418Z,1.40
2022-12-24T02:55:48.044Z,1.60
2022-12-24T02:56:13.430Z,1.85
2022-12-24T02:56:49.950Z,2.58
2022-12-24T02:57:18.274Z,2.40
2022-12-24T02:57:57.518Z,1.90
2022-12-24T02:58:18.135Z,2.80
2022-12-24T02:58:55.966Z,2.10
2022-12-24T02:59:19.746Z,1.75
2022-12-24T02:59:46.338Z,1.50
2022-12-24T03:00:08.688Z,1.58
2022-12-24T03:00:22.841Z,1.85
2022-12-24T03:00:50.102Z,2.00
2022-12-24T03:01:42.616Z,1.77
2022-12-24T03:02:00.272Z,2.40
2022-12-24T03:02:25.457Z,2.70
2022-12-24T03:02:46.279Z,3.25
2022-12-24T03:03:22.193Z,1.92
2022-12-24T03:03:45.427Z,2.10
2022-12-24T03:03:59.797Z,2.10
2022-12-24T03:04:20.801Z,2.15
2022-12-24T03:04:52.432Z,2.10
2022-12-24T03:05:38.718Z,2.03
2022-12-24T03:05:59.736Z,1.75
2022-12-24T03:06:30.716Z,1.83
2022-12-24T03:07:06.785Z,2.20
2022-12-24T03:07:23.462Z,3.40
2022-12-24T03:07:55.000Z,2.55
2022-12-24T03:08:19.591Z,2.67
2022-12-24T03:08:42.425Z,2.60
2022-12-24T03:09:01.925Z,2.53
2022-12-24T03:09:25.313Z,3.38
2022-12-24T03:10:01.781Z,2.83
2022-12-24T03:10:23.877Z,2.10
2022-12-24T03:10:41.877Z,1.60
2022-12-24T03:11:01.348Z,1.70
2022-12-24T03:11:15.318Z,2.20
2022-12-24T03:11:27.594Z,2.20
2022-12-24T03:11:46.157Z,2.40
2022-12-24T03:12:08.235Z,2.65
2022-12-24T03:12:26.684Z,2.10
2022-12-24T03:13:07.057Z,2.17
2022-12-24T03:13:21.655Z,2.00
2022-12-24T03:13:34.199Z,2.10
2022-12-24T03:13:47.876Z,2.22
2022-12-24T03:14:00.575Z,2.78
2022-12-24T03:14:14.643Z,2.53
2022-12-24T03:14:28.084Z,2.08
2022-12-24T03:14:42.209Z,1.80
2022-12-24T03:14:54.767Z,1.70
2022-12-24T03:15:09.318Z,1.67
2022-12-24T03:15:24.201Z,1.55
2022-12-24T03:15:37.775Z,1.30
2022-12-24T03:15:51.720Z,1.40
2022-12-24T03:16:09.768Z,1.70
2022-12-24T03:16:25.094Z,1.80
2022-12-24T03:16:37.491Z,1.60
2022-12-24T03:16:49.871Z,1.42
2022-12-24T03:17:03.473Z,1.52
2022-12-24T03:17:18.573Z,1.80
2022-12-24T03:17:32.785Z,1.92
2022-12-24T03:17:47.702Z,2.03
2022-12-24T03:18:02.443Z,2.25
2022-12-24T03:18:22.519Z,2.22
2022-12-24T03:18:39.836Z,2.10
2022-12-24T03:18:54.361Z,2.22
2022-12-24T03:19:06.439Z,1.95
2022-12-24T03:19:20.436Z,1.73
2022-12-24T03:19:33.111Z,1.60
2022-12-24T03:19:46.668Z,1.70
2022-12-24T03:19:58.668Z,1.83
2022-12-24T03:20:15.139Z,2.05
2022-12-24T03:20:35.299Z,1.55
2022-12-24T03:20:56.571Z,1.33
2022-12-24T03:21:16.280Z,1.77
2022-12-24T03:21:33.016Z,2.25
2022-12-24T03:21:47.421Z,2.45
2022-12-24T03:22:03.182Z,1.92
2022-12-24T03:22:16.062Z,1.70
2022-12-24T03:22:28.842Z,2.08
2022-12-24T03:22:41.360Z,2.03
2022-12-24T03:22:53.376Z,1.98
2022-12-24T03:23:05.913Z,1.83
2022-12-24T03:23:18.155Z,1.85
2022-12-24T03:23:30.393Z,2.38
2022-12-24T03:23:43.300Z,2.40
2022-12-24T03:23:56.314Z,2.00
2022-12-24T03:24:10.673Z,2.08
2022-12-24T03:24:22.644Z,2.10
2022-12-24T03:24:34.876Z,1.98
2022-12-24T03:24:46.833Z,1.70